Terminal Aerodrome Forecast
Issued by NWS Jackson, MS

Home | Current Version | Previous Version | Text Only | Print | Product List | Glossary On
Versions: 1 2 3 4 5 6 7 8 9 10 11 12 13
000
FTUS44 KMEG 191745
TAFTUP
TAF
KTUP 191745Z 1918/2018 04006KT P6SM SCT025 OVC040
     FM192200 04005KT P6SM VCSH SCT015 OVC025
     FM200000 04005KT 3SM -RA BR SCT009 OVC020
     FM200400 02005KT 5SM BR VCSH BKN009 OVC020
     FM200900 03004KT P6SM OVC050
     FM201300 02005KT P6SM SCT012 OVC150=

USA.gov is the U.S. government's official web portal to all federal, state and local government web resources and services.